sensor_id;sensor_type;location;lat;lon;timestamp;P1;durP1;ratioP1;P2;durP2;ratioP2
52322;SDS011;38263;52.920;6.238;2022-11-20T00:01:16;13.98;;;8.25;;
52322;SDS011;38263;52.920;6.238;2022-11-20T00:03:46;17.60;;;10.52;;
52322;SDS011;38263;52.920;6.238;2022-11-20T00:06:13;15.88;;;9.10;;
52322;SDS011;38263;52.920;6.238;2022-11-20T00:08:41;18.10;;;9.43;;
52322;SDS011;38263;52.920;6.238;2022-11-20T00:11:09;16.60;;;8.80;;
52322;SDS011;38263;52.920;6.238;2022-11-20T00:13:37;15.88;;;9.27;;
52322;SDS011;38263;52.920;6.238;2022-11-20T00:16:03;19.55;;;9.48;;
52322;SDS011;38263;52.920;6.238;2022-11-20T00:18:32;15.13;;;8.55;;
52322;SDS011;38263;52.920;6.238;2022-11-20T00:21:07;17.75;;;9.75;;
52322;SDS011;38263;52.920;6.238;2022-11-20T00:23:36;17.20;;;9.77;;
52322;SDS011;38263;52.920;6.238;2022-11-20T00:26:05;15.60;;;9.00;;
52322;SDS011;38263;52.920;6.238;2022-11-20T00:28:32;15.90;;;9.65;;
52322;SDS011;38263;52.920;6.238;2022-11-20T00:31:05;18.48;;;10.05;;
52322;SDS011;38263;52.920;6.238;2022-11-20T00:33:33;17.08;;;8.98;;
52322;SDS011;38263;52.920;6.238;2022-11-20T00:35:59;16.60;;;9.00;;
52322;SDS011;38263;52.920;6.238;2022-11-20T00:38:26;18.45;;;10.10;;
52322;SDS011;38263;52.920;6.238;2022-11-20T00:40:58;18.45;;;9.75;;
52322;SDS011;38263;52.920;6.238;2022-11-20T00:43:26;23.52;;;8.73;;
52322;SDS011;38263;52.920;6.238;2022-11-20T00:45:59;17.70;;;8.95;;
52322;SDS011;38263;52.920;6.238;2022-11-20T00:48:28;17.63;;;9.60;;
52322;SDS011;38263;52.920;6.238;2022-11-20T00:50:54;15.35;;;8.95;;
52322;SDS011;38263;52.920;6.238;2022-11-20T00:53:20;19.65;;;9.57;;
52322;SDS011;38263;52.920;6.238;2022-11-20T00:55:52;14.57;;;9.45;;
52322;SDS011;38263;52.920;6.238;2022-11-20T00:58:19;18.10;;;10.55;;
52322;SDS011;38263;52.920;6.238;2022-11-20T01:00:45;18.92;;;11.50;;
52322;SDS011;38263;52.920;6.238;2022-11-20T01:03:11;19.42;;;10.27;;
52322;SDS011;38263;52.920;6.238;2022-11-20T01:05:37;18.63;;;10.95;;
52322;SDS011;38263;52.920;6.238;2022-11-20T01:08:03;17.52;;;10.13;;
52322;SDS011;38263;52.920;6.238;2022-11-20T01:10:29;15.98;;;10.05;;
52322;SDS011;38263;52.920;6.238;2022-11-20T01:12:55;17.27;;;10.15;;
52322;SDS011;38263;52.920;6.238;2022-11-20T01:15:39;17.13;;;9.80;;
52322;SDS011;38263;52.920;6.238;2022-11-20T01:18:05;17.83;;;9.90;;
52322;SDS011;38263;52.920;6.238;2022-11-20T01:20:35;20.20;;;9.68;;
52322;SDS011;38263;52.920;6.238;2022-11-20T01:23:01;15.65;;;9.00;;
52322;SDS011;38263;52.920;6.238;2022-11-20T01:25:27;15.68;;;9.52;;
52322;SDS011;38263;52.920;6.238;2022-11-20T01:27:53;13.82;;;9.00;;
52322;SDS011;38263;52.920;6.238;2022-11-20T01:30:19;16.35;;;9.75;;
52322;SDS011;38263;52.920;6.238;2022-11-20T01:32:45;14.18;;;8.77;;
52322;SDS011;38263;52.920;6.238;2022-11-20T01:35:11;16.58;;;9.27;;
52322;SDS011;38263;52.920;6.238;2022-11-20T01:37:37;14.63;;;9.13;;
52322;SDS011;38263;52.920;6.238;2022-11-20T01:40:03;15.02;;;8.93;;
52322;SDS011;38263;52.920;6.238;2022-11-20T01:42:29;14.65;;;8.65;;
52322;SDS011;38263;52.920;6.238;2022-11-20T01:47:58;16.38;;;10.27;;
52322;SDS011;38263;52.920;6.238;2022-11-20T01:50:25;16.73;;;9.90;;
52322;SDS011;38263;52.920;6.238;2022-11-20T01:52:55;17.55;;;10.13;;
52322;SDS011;38263;52.920;6.238;2022-11-20T01:55:36;18.33;;;9.80;;
52322;SDS011;38263;52.920;6.238;2022-11-20T01:58:09;19.10;;;10.88;;
52322;SDS011;38263;52.920;6.238;2022-11-20T02:00:35;16.13;;;9.23;;
52322;SDS011;38263;52.920;6.238;2022-11-20T02:03:05;18.40;;;10.15;;
52322;SDS011;38263;52.920;6.238;2022-11-20T02:05:45;20.17;;;10.60;;
52322;SDS011;38263;52.920;6.238;2022-11-20T02:08:14;20.10;;;10.40;;
52322;SDS011;38263;52.920;6.238;2022-11-20T02:10:42;18.83;;;10.32;;
52322;SDS011;38263;52.920;6.238;2022-11-20T02:13:08;16.05;;;9.55;;
52322;SDS011;38263;52.920;6.238;2022-11-20T02:15:52;17.13;;;9.73;;
52322;SDS011;38263;52.920;6.238;2022-11-20T02:18:19;18.58;;;10.32;;
52322;SDS011;38263;52.920;6.238;2022-11-20T02:20:47;16.85;;;9.70;;
52322;SDS011;38263;52.920;6.238;2022-11-20T02:23:22;18.60;;;10.48;;
52322;SDS011;38263;52.920;6.238;2022-11-20T02:25:57;19.25;;;10.40;;
52322;SDS011;38263;52.920;6.238;2022-11-20T02:28:24;15.82;;;10.23;;
52322;SDS011;38263;52.920;6.238;2022-11-20T02:30:50;15.80;;;10.32;;
52322;SDS011;38263;52.920;6.238;2022-11-20T02:33:16;18.58;;;10.02;;
52322;SDS011;38263;52.920;6.238;2022-11-20T02:35:43;16.83;;;9.73;;
52322;SDS011;38263;52.920;6.238;2022-11-20T02:38:12;16.67;;;9.80;;
52322;SDS011;38263;52.920;6.238;2022-11-20T02:40:39;18.08;;;9.73;;
52322;SDS011;38263;52.920;6.238;2022-11-20T02:43:05;17.52;;;9.80;;
52322;SDS011;38263;52.920;6.238;2022-11-20T02:45:31;19.13;;;10.40;;
52322;SDS011;38263;52.920;6.238;2022-11-20T02:47:57;18.17;;;10.32;;
52322;SDS011;38263;52.920;6.238;2022-11-20T02:50:23;19.17;;;10.23;;
52322;SDS011;38263;52.920;6.238;2022-11-20T02:52:49;19.10;;;10.75;;
52322;SDS011;38263;52.920;6.238;2022-11-20T02:55:15;16.45;;;10.05;;
52322;SDS011;38263;52.920;6.238;2022-11-20T02:57:41;17.48;;;9.68;;
52322;SDS011;38263;52.920;6.238;2022-11-20T03:00:07;18.02;;;10.30;;
52322;SDS011;38263;52.920;6.238;2022-11-20T03:02:33;17.23;;;10.35;;
52322;SDS011;38263;52.920;6.238;2022-11-20T03:04:59;16.23;;;9.48;;
52322;SDS011;38263;52.920;6.238;2022-11-20T03:07:25;18.23;;;10.27;;
52322;SDS011;38263;52.920;6.238;2022-11-20T03:09:51;20.15;;;11.13;;
52322;SDS011;38263;52.920;6.238;2022-11-20T03:12:17;18.60;;;11.48;;
52322;SDS011;38263;52.920;6.238;2022-11-20T03:14:43;18.23;;;11.15;;
52322;SDS011;38263;52.920;6.238;2022-11-20T03:17:09;17.63;;;11.23;;
52322;SDS011;38263;52.920;6.238;2022-11-20T03:19:35;17.65;;;11.38;;
52322;SDS011;38263;52.920;6.238;2022-11-20T03:22:01;20.73;;;11.48;;
52322;SDS011;38263;52.920;6.238;2022-11-20T03:24:27;18.95;;;10.45;;
52322;SDS011;38263;52.920;6.238;2022-11-20T03:26:52;17.73;;;11.30;;
52322;SDS011;38263;52.920;6.238;2022-11-20T03:29:18;17.35;;;10.18;;
52322;SDS011;38263;52.920;6.238;2022-11-20T03:31:44;16.38;;;9.73;;
52322;SDS011;38263;52.920;6.238;2022-11-20T03:34:11;18.88;;;11.32;;
52322;SDS011;38263;52.920;6.238;2022-11-20T03:36:37;19.02;;;10.63;;
52322;SDS011;38263;52.920;6.238;2022-11-20T03:39:04;19.17;;;10.90;;
52322;SDS011;38263;52.920;6.238;2022-11-20T03:41:30;17.63;;;11.07;;
52322;SDS011;38263;52.920;6.238;2022-11-20T03:43:58;17.38;;;10.40;;
52322;SDS011;38263;52.920;6.238;2022-11-20T03:46:25;19.50;;;11.00;;
52322;SDS011;38263;52.920;6.238;2022-11-20T03:48:51;19.13;;;10.43;;
52322;SDS011;38263;52.920;6.238;2022-11-20T03:51:21;17.23;;;11.15;;
52322;SDS011;38263;52.920;6.238;2022-11-20T03:53:50;17.98;;;10.77;;
52322;SDS011;38263;52.920;6.238;2022-11-20T03:56:18;19.10;;;10.73;;
52322;SDS011;38263;52.920;6.238;2022-11-20T03:58:44;17.70;;;10.50;;
52322;SDS011;38263;52.920;6.238;2022-11-20T04:01:17;19.05;;;11.45;;
52322;SDS011;38263;52.920;6.238;2022-11-20T04:03:47;17.85;;;10.88;;
52322;SDS011;38263;52.920;6.238;2022-11-20T04:06:15;16.80;;;10.38;;
52322;SDS011;38263;52.920;6.238;2022-11-20T04:08:41;19.00;;;11.20;;
52322;SDS011;38263;52.920;6.238;2022-11-20T04:11:11;17.98;;;10.68;;
52322;SDS011;38263;52.920;6.238;2022-11-20T04:13:49;17.88;;;10.27;;
52322;SDS011;38263;52.920;6.238;2022-11-20T04:16:17;18.73;;;10.85;;
52322;SDS011;38263;52.920;6.238;2022-11-20T04:18:43;17.60;;;10.63;;
52322;SDS011;38263;52.920;6.238;2022-11-20T04:21:09;19.48;;;10.07;;
52322;SDS011;38263;52.920;6.238;2022-11-20T04:23:35;14.30;;;9.80;;
52322;SDS011;38263;52.920;6.238;2022-11-20T04:26:05;16.50;;;10.13;;
52322;SDS011;38263;52.920;6.238;2022-11-20T04:28:32;19.35;;;11.70;;
52322;SDS011;38263;52.920;6.238;2022-11-20T04:31:40;15.55;;;9.98;;
52322;SDS011;38263;52.920;6.238;2022-11-20T04:33:48;14.40;;;9.30;;
52322;SDS011;38263;52.920;6.238;2022-11-20T04:36:24;15.57;;;9.40;;
52322;SDS011;38263;52.920;6.238;2022-11-20T04:39:02;16.48;;;11.05;;
52322;SDS011;38263;52.920;6.238;2022-11-20T04:41:30;16.40;;;10.38;;
52322;SDS011;38263;52.920;6.238;2022-11-20T04:43:59;17.65;;;10.68;;
52322;SDS011;38263;52.920;6.238;2022-11-20T04:46:28;17.88;;;10.85;;
52322;SDS011;38263;52.920;6.238;2022-11-20T04:48:58;16.30;;;9.93;;
52322;SDS011;38263;52.920;6.238;2022-11-20T04:51:24;19.52;;;11.38;;
52322;SDS011;38263;52.920;6.238;2022-11-20T04:53:50;18.25;;;10.73;;
52322;SDS011;38263;52.920;6.238;2022-11-20T04:56:16;20.20;;;10.27;;
52322;SDS011;38263;52.920;6.238;2022-11-20T04:58:42;19.83;;;11.48;;
52322;SDS011;38263;52.920;6.238;2022-11-20T05:01:12;16.77;;;9.50;;
52322;SDS011;38263;52.920;6.238;2022-11-20T05:03:42;15.73;;;9.60;;
52322;SDS011;38263;52.920;6.238;2022-11-20T05:06:10;19.65;;;11.10;;
52322;SDS011;38263;52.920;6.238;2022-11-20T05:08:37;16.48;;;10.40;;
52322;SDS011;38263;52.920;6.238;2022-11-20T05:11:04;17.42;;;10.00;;
52322;SDS011;38263;52.920;6.238;2022-11-20T05:13:31;17.70;;;9.93;;
52322;SDS011;38263;52.920;6.238;2022-11-20T05:16:04;16.80;;;10.05;;
52322;SDS011;38263;52.920;6.238;2022-11-20T05:18:30;16.02;;;9.43;;
52322;SDS011;38263;52.920;6.238;2022-11-20T05:20:57;24.02;;;9.18;;
52322;SDS011;38263;52.920;6.238;2022-11-20T05:23:23;15.93;;;8.45;;
52322;SDS011;38263;52.920;6.238;2022-11-20T05:25:51;15.60;;;8.65;;
52322;SDS011;38263;52.920;6.238;2022-11-20T05:28:21;16.23;;;8.05;;
52322;SDS011;38263;52.920;6.238;2022-11-20T05:30:47;12.75;;;8.52;;
52322;SDS011;38263;52.920;6.238;2022-11-20T05:33:13;17.80;;;8.85;;
52322;SDS011;38263;52.920;6.238;2022-11-20T05:35:39;14.02;;;8.48;;
52322;SDS011;38263;52.920;6.238;2022-11-20T05:38:05;18.00;;;9.38;;
52322;SDS011;38263;52.920;6.238;2022-11-20T05:40:31;14.60;;;8.65;;
52322;SDS011;38263;52.920;6.238;2022-11-20T05:42:56;14.70;;;8.52;;
52322;SDS011;38263;52.920;6.238;2022-11-20T05:45:22;16.20;;;9.10;;
52322;SDS011;38263;52.920;6.238;2022-11-20T05:47:48;16.08;;;9.15;;
52322;SDS011;38263;52.920;6.238;2022-11-20T05:50:14;14.38;;;8.52;;
52322;SDS011;38263;52.920;6.238;2022-11-20T05:52:40;15.25;;;8.95;;
52322;SDS011;38263;52.920;6.238;2022-11-20T05:55:07;17.02;;;8.95;;
52322;SDS011;38263;52.920;6.238;2022-11-20T05:57:33;17.40;;;9.75;;
52322;SDS011;38263;52.920;6.238;2022-11-20T05:59:59;14.65;;;8.80;;
52322;SDS011;38263;52.920;6.238;2022-11-20T06:02:25;17.90;;;9.95;;
52322;SDS011;38263;52.920;6.238;2022-11-20T06:04:50;15.38;;;9.35;;
52322;SDS011;38263;52.920;6.238;2022-11-20T06:07:16;14.35;;;8.77;;
52322;SDS011;38263;52.920;6.238;2022-11-20T06:09:42;15.27;;;9.30;;
52322;SDS011;38263;52.920;6.238;2022-11-20T06:12:08;14.52;;;8.93;;
52322;SDS011;38263;52.920;6.238;2022-11-20T06:14:34;15.48;;;9.10;;
52322;SDS011;38263;52.920;6.238;2022-11-20T06:17:00;13.88;;;7.75;;
52322;SDS011;38263;52.920;6.238;2022-11-20T06:19:26;14.38;;;8.77;;
52322;SDS011;38263;52.920;6.238;2022-11-20T06:21:52;12.50;;;8.35;;
52322;SDS011;38263;52.920;6.238;2022-11-20T06:24:17;12.48;;;8.77;;
52322;SDS011;38263;52.920;6.238;2022-11-20T06:26:43;15.60;;;9.85;;
52322;SDS011;38263;52.920;6.238;2022-11-20T06:29:10;16.35;;;9.48;;
52322;SDS011;38263;52.920;6.238;2022-11-20T06:31:36;15.55;;;9.00;;
52322;SDS011;38263;52.920;6.238;2022-11-20T06:34:03;16.95;;;9.90;;
52322;SDS011;38263;52.920;6.238;2022-11-20T06:36:30;16.42;;;9.80;;
52322;SDS011;38263;52.920;6.238;2022-11-20T06:38:56;15.23;;;9.07;;
52322;SDS011;38263;52.920;6.238;2022-11-20T06:41:22;13.60;;;8.48;;
52322;SDS011;38263;52.920;6.238;2022-11-20T06:43:48;14.02;;;8.63;;
52322;SDS011;38263;52.920;6.238;2022-11-20T06:46:15;14.90;;;9.35;;
52322;SDS011;38263;52.920;6.238;2022-11-20T06:48:42;14.52;;;9.00;;
52322;SDS011;38263;52.920;6.238;2022-11-20T06:51:08;14.55;;;9.25;;
52322;SDS011;38263;52.920;6.238;2022-11-20T06:53:35;14.73;;;8.82;;
52322;SDS011;38263;52.920;6.238;2022-11-20T06:56:01;15.63;;;9.70;;
52322;SDS011;38263;52.920;6.238;2022-11-20T06:58:28;17.15;;;10.10;;
52322;SDS011;38263;52.920;6.238;2022-11-20T07:01:02;14.77;;;9.80;;
52322;SDS011;38263;52.920;6.238;2022-11-20T07:03:33;16.95;;;10.02;;
52322;SDS011;38263;52.920;6.238;2022-11-20T07:05:59;16.05;;;10.80;;
52322;SDS011;38263;52.920;6.238;2022-11-20T07:08:26;18.80;;;11.25;;
52322;SDS011;38263;52.920;6.238;2022-11-20T07:10:52;18.83;;;10.68;;
52322;SDS011;38263;52.920;6.238;2022-11-20T07:13:18;17.13;;;10.60;;
52322;SDS011;38263;52.920;6.238;2022-11-20T07:15:44;18.75;;;10.95;;
52322;SDS011;38263;52.920;6.238;2022-11-20T07:18:10;17.42;;;9.75;;
52322;SDS011;38263;52.920;6.238;2022-11-20T07:20:36;14.48;;;9.20;;
52322;SDS011;38263;52.920;6.238;2022-11-20T07:23:02;19.58;;;10.00;;
52322;SDS011;38263;52.920;6.238;2022-11-20T07:25:28;17.15;;;10.10;;
52322;SDS011;38263;52.920;6.238;2022-11-20T07:27:58;16.15;;;9.40;;
52322;SDS011;38263;52.920;6.238;2022-11-20T07:30:24;18.80;;;10.65;;
52322;SDS011;38263;52.920;6.238;2022-11-20T07:32:50;18.52;;;10.40;;
52322;SDS011;38263;52.920;6.238;2022-11-20T07:35:16;18.63;;;9.73;;
52322;SDS011;38263;52.920;6.238;2022-11-20T07:37:42;16.77;;;10.50;;
52322;SDS011;38263;52.920;6.238;2022-11-20T07:40:08;16.80;;;9.60;;
52322;SDS011;38263;52.920;6.238;2022-11-20T07:42:34;15.48;;;9.43;;
52322;SDS011;38263;52.920;6.238;2022-11-20T07:45:00;17.17;;;10.50;;
52322;SDS011;38263;52.920;6.238;2022-11-20T07:47:26;18.63;;;10.57;;
52322;SDS011;38263;52.920;6.238;2022-11-20T07:49:52;17.70;;;10.70;;
52322;SDS011;38263;52.920;6.238;2022-11-20T07:52:18;18.85;;;11.05;;
52322;SDS011;38263;52.920;6.238;2022-11-20T07:54:44;17.73;;;11.25;;
52322;SDS011;38263;52.920;6.238;2022-11-20T07:57:10;15.05;;;9.55;;
52322;SDS011;38263;52.920;6.238;2022-11-20T07:59:36;19.17;;;10.93;;
52322;SDS011;38263;52.920;6.238;2022-11-20T08:02:03;20.38;;;10.85;;
52322;SDS011;38263;52.920;6.238;2022-11-20T08:04:29;17.58;;;10.85;;
52322;SDS011;38263;52.920;6.238;2022-11-20T08:06:55;18.27;;;10.63;;
52322;SDS011;38263;52.920;6.238;2022-11-20T08:09:21;17.77;;;10.65;;
52322;SDS011;38263;52.920;6.238;2022-11-20T08:11:47;17.23;;;9.75;;
52322;SDS011;38263;52.920;6.238;2022-11-20T08:14:31;17.38;;;10.32;;
52322;SDS011;38263;52.920;6.238;2022-11-20T08:16:57;18.73;;;11.13;;
52322;SDS011;38263;52.920;6.238;2022-11-20T08:19:24;17.30;;;10.52;;
52322;SDS011;38263;52.920;6.238;2022-11-20T08:21:50;19.30;;;10.60;;
52322;SDS011;38263;52.920;6.238;2022-11-20T08:24:16;16.48;;;10.55;;
52322;SDS011;38263;52.920;6.238;2022-11-20T08:26:42;14.30;;;9.65;;
52322;SDS011;38263;52.920;6.238;2022-11-20T08:29:08;16.30;;;10.07;;
52322;SDS011;38263;52.920;6.238;2022-11-20T08:31:34;17.35;;;10.32;;
52322;SDS011;38263;52.920;6.238;2022-11-20T08:34:00;16.45;;;10.10;;
52322;SDS011;38263;52.920;6.238;2022-11-20T08:36:26;16.77;;;10.07;;
52322;SDS011;38263;52.920;6.238;2022-11-20T08:38:52;16.70;;;10.32;;
52322;SDS011;38263;52.920;6.238;2022-11-20T08:41:20;19.58;;;10.88;;
52322;SDS011;38263;52.920;6.238;2022-11-20T08:44:04;15.77;;;10.48;;
52322;SDS011;38263;52.920;6.238;2022-11-20T08:46:35;18.63;;;10.02;;
52322;SDS011;38263;52.920;6.238;2022-11-20T08:49:03;14.30;;;9.00;;
52322;SDS011;38263;52.920;6.238;2022-11-20T08:51:29;19.83;;;9.73;;
52322;SDS011;38263;52.920;6.238;2022-11-20T08:53:55;15.50;;;8.85;;
52322;SDS011;38263;52.920;6.238;2022-11-20T08:56:21;14.32;;;9.20;;
52322;SDS011;38263;52.920;6.238;2022-11-20T08:58:47;15.43;;;9.90;;
52322;SDS011;38263;52.920;6.238;2022-11-20T09:01:13;13.45;;;8.43;;
52322;SDS011;38263;52.920;6.238;2022-11-20T09:03:38;13.60;;;8.65;;
52322;SDS011;38263;52.920;6.238;2022-11-20T09:06:05;12.82;;;8.20;;
52322;SDS011;38263;52.920;6.238;2022-11-20T09:08:32;14.52;;;8.48;;
52322;SDS011;38263;52.920;6.238;2022-11-20T09:10:58;14.20;;;9.35;;
52322;SDS011;38263;52.920;6.238;2022-11-20T09:13:25;12.68;;;8.80;;
52322;SDS011;38263;52.920;6.238;2022-11-20T09:15:52;13.95;;;8.82;;
52322;SDS011;38263;52.920;6.238;2022-11-20T09:18:19;15.23;;;9.50;;
52322;SDS011;38263;52.920;6.238;2022-11-20T09:20:45;15.80;;;9.88;;
52322;SDS011;38263;52.920;6.238;2022-11-20T09:23:10;11.80;;;8.43;;
52322;SDS011;38263;52.920;6.238;2022-11-20T09:25:36;12.38;;;8.07;;
52322;SDS011;38263;52.920;6.238;2022-11-20T09:28:02;11.63;;;8.52;;
52322;SDS011;38263;52.920;6.238;2022-11-20T09:30:28;13.40;;;9.32;;
52322;SDS011;38263;52.920;6.238;2022-11-20T09:32:53;14.52;;;9.50;;
52322;SDS011;38263;52.920;6.238;2022-11-20T09:35:19;12.75;;;9.15;;
52322;SDS011;38263;52.920;6.238;2022-11-20T09:37:45;13.00;;;8.52;;
52322;SDS011;38263;52.920;6.238;2022-11-20T09:40:24;13.00;;;8.98;;
52322;SDS011;38263;52.920;6.238;2022-11-20T09:42:57;15.23;;;9.10;;
52322;SDS011;38263;52.920;6.238;2022-11-20T09:45:37;12.57;;;9.15;;
52322;SDS011;38263;52.920;6.238;2022-11-20T09:56:45;12.98;;;8.10;;
52322;SDS011;38263;52.920;6.238;2022-11-20T09:59:28;11.52;;;8.70;;
52322;SDS011;38263;52.920;6.238;2022-11-20T10:02:03;13.25;;;8.63;;
52322;SDS011;38263;52.920;6.238;2022-11-20T10:07:44;13.52;;;8.85;;
52322;SDS011;38263;52.920;6.238;2022-11-20T10:10:14;11.43;;;7.80;;
52322;SDS011;38263;52.920;6.238;2022-11-20T10:12:46;12.38;;;8.13;;
52322;SDS011;38263;52.920;6.238;2022-11-20T10:20:58;12.10;;;7.85;;
52322;SDS011;38263;52.920;6.238;2022-11-20T10:23:44;11.40;;;7.93;;
52322;SDS011;38263;52.920;6.238;2022-11-20T10:26:28;11.15;;;6.43;;
52322;SDS011;38263;52.920;6.238;2022-11-20T10:34:21;10.52;;;6.03;;
52322;SDS011;38263;52.920;6.238;2022-11-20T10:37:16;9.15;;;6.13;;
52322;SDS011;38263;52.920;6.238;2022-11-20T10:42:37;10.38;;;7.22;;
52322;SDS011;38263;52.920;6.238;2022-11-20T10:45:30;8.30;;;6.20;;
52322;SDS011;38263;52.920;6.238;2022-11-20T10:48:12;10.90;;;6.22;;
52322;SDS011;38263;52.920;6.238;2022-11-20T10:50:53;8.98;;;6.45;;
52322;SDS011;38263;52.920;6.238;2022-11-20T10:56:31;9.48;;;6.45;;
52322;SDS011;38263;52.920;6.238;2022-11-20T10:59:27;10.45;;;6.70;;
52322;SDS011;38263;52.920;6.238;2022-11-20T11:01:55;10.38;;;6.55;;
52322;SDS011;38263;52.920;6.238;2022-11-20T11:04:30;9.15;;;5.90;;
52322;SDS011;38263;52.920;6.238;2022-11-20T11:06:58;9.32;;;6.60;;
52322;SDS011;38263;52.920;6.238;2022-11-20T11:09:37;9.98;;;6.05;;
52322;SDS011;38263;52.920;6.238;2022-11-20T11:12:10;8.63;;;5.90;;
52322;SDS011;38263;52.920;6.238;2022-11-20T11:14:47;9.85;;;6.00;;
52322;SDS011;38263;52.920;6.238;2022-11-20T11:22:28;8.73;;;5.47;;
52322;SDS011;38263;52.920;6.238;2022-11-20T11:24:55;8.90;;;5.25;;
52322;SDS011;38263;52.920;6.238;2022-11-20T11:27:21;9.95;;;6.05;;
52322;SDS011;38263;52.920;6.238;2022-11-20T11:29:47;8.80;;;6.05;;
52322;SDS011;38263;52.920;6.238;2022-11-20T11:32:14;9.20;;;5.85;;
52322;SDS011;38263;52.920;6.238;2022-11-20T11:34:42;7.20;;;5.55;;
52322;SDS011;38263;52.920;6.238;2022-11-20T11:37:16;7.40;;;5.60;;
52322;SDS011;38263;52.920;6.238;2022-11-20T11:39:44;7.68;;;5.40;;
52322;SDS011;38263;52.920;6.238;2022-11-20T11:42:13;9.48;;;4.95;;
52322;SDS011;38263;52.920;6.238;2022-11-20T11:44:46;8.63;;;5.15;;
52322;SDS011;38263;52.920;6.238;2022-11-20T11:52:39;6.78;;;4.65;;
52322;SDS011;38263;52.920;6.238;2022-11-20T11:55:19;12.25;;;5.22;;
52322;SDS011;38263;52.920;6.238;2022-11-20T12:00:20;8.82;;;5.70;;
52322;SDS011;38263;52.920;6.238;2022-11-20T12:05:18;6.88;;;5.40;;
52322;SDS011;38263;52.920;6.238;2022-11-20T12:08:02;7.00;;;4.72;;
52322;SDS011;38263;52.920;6.238;2022-11-20T12:10:43;6.68;;;4.53;;
52322;SDS011;38263;52.920;6.238;2022-11-20T12:13:25;9.52;;;4.57;;
52322;SDS011;38263;52.920;6.238;2022-11-20T12:15:58;8.50;;;5.35;;
52322;SDS011;38263;52.920;6.238;2022-11-20T12:18:25;8.30;;;5.35;;
52322;SDS011;38263;52.920;6.238;2022-11-20T12:23:28;8.07;;;5.32;;
52322;SDS011;38263;52.920;6.238;2022-11-20T12:25:58;7.35;;;4.82;;
52322;SDS011;38263;52.920;6.238;2022-11-20T12:28:44;8.88;;;5.63;;
52322;SDS011;38263;52.920;6.238;2022-11-20T12:31:31;6.53;;;4.72;;
52322;SDS011;38263;52.920;6.238;2022-11-20T12:34:17;7.88;;;5.25;;
52322;SDS011;38263;52.920;6.238;2022-11-20T12:36:51;10.55;;;5.50;;
52322;SDS011;38263;52.920;6.238;2022-11-20T12:39:40;8.90;;;5.18;;
52322;SDS011;38263;52.920;6.238;2022-11-20T12:50:46;7.47;;;5.22;;
52322;SDS011;38263;52.920;6.238;2022-11-20T13:01:45;8.75;;;6.00;;
52322;SDS011;38263;52.920;6.238;2022-11-20T13:04:33;8.95;;;5.28;;
52322;SDS011;38263;52.920;6.238;2022-11-20T13:07:14;7.43;;;5.53;;
52322;SDS011;38263;52.920;6.238;2022-11-20T13:09:43;9.07;;;6.00;;
52322;SDS011;38263;52.920;6.238;2022-11-20T13:12:12;9.20;;;5.40;;
52322;SDS011;38263;52.920;6.238;2022-11-20T13:17:48;9.85;;;6.03;;
52322;SDS011;38263;52.920;6.238;2022-11-20T13:20:24;9.52;;;6.20;;
52322;SDS011;38263;52.920;6.238;2022-11-20T13:22:51;10.70;;;6.70;;
52322;SDS011;38263;52.920;6.238;2022-11-20T13:25:26;11.55;;;6.60;;
52322;SDS011;38263;52.920;6.238;2022-11-20T13:27:57;11.10;;;6.35;;
52322;SDS011;38263;52.920;6.238;2022-11-20T13:30:26;9.82;;;6.57;;
52322;SDS011;38263;52.920;6.238;2022-11-20T13:32:56;10.02;;;6.35;;
52322;SDS011;38263;52.920;6.238;2022-11-20T13:35:34;9.90;;;6.00;;
52322;SDS011;38263;52.920;6.238;2022-11-20T13:40:36;10.45;;;6.57;;
52322;SDS011;38263;52.920;6.238;2022-11-20T13:43:22;10.88;;;6.05;;
52322;SDS011;38263;52.920;6.238;2022-11-20T13:46:00;10.43;;;6.32;;
52322;SDS011;38263;52.920;6.238;2022-11-20T13:49:05;12.73;;;6.97;;
52322;SDS011;38263;52.920;6.238;2022-11-20T13:57:33;10.60;;;7.00;;
52322;SDS011;38263;52.920;6.238;2022-11-20T14:00:09;11.23;;;7.72;;
52322;SDS011;38263;52.920;6.238;2022-11-20T14:02:36;14.77;;;7.07;;
52322;SDS011;38263;52.920;6.238;2022-11-20T14:05:02;14.43;;;7.75;;
52322;SDS011;38263;52.920;6.238;2022-11-20T14:07:35;14.30;;;6.63;;
52322;SDS011;38263;52.920;6.238;2022-11-20T14:10:18;10.70;;;7.47;;
52322;SDS011;38263;52.920;6.238;2022-11-20T14:12:44;13.98;;;7.88;;
52322;SDS011;38263;52.920;6.238;2022-11-20T14:15:26;14.15;;;8.38;;
52322;SDS011;38263;52.920;6.238;2022-11-20T14:17:52;10.93;;;7.70;;
52322;SDS011;38263;52.920;6.238;2022-11-20T14:20:19;14.10;;;9.02;;
52322;SDS011;38263;52.920;6.238;2022-11-20T14:22:51;11.75;;;6.90;;
52322;SDS011;38263;52.920;6.238;2022-11-20T14:27:48;12.02;;;7.75;;
52322;SDS011;38263;52.920;6.238;2022-11-20T14:30:20;11.95;;;7.63;;
52322;SDS011;38263;52.920;6.238;2022-11-20T14:32:46;11.52;;;6.53;;
52322;SDS011;38263;52.920;6.238;2022-11-20T14:35:56;11.50;;;7.45;;
52322;SDS011;38263;52.920;6.238;2022-11-20T14:38:02;12.68;;;7.55;;
52322;SDS011;38263;52.920;6.238;2022-11-20T14:40:30;13.23;;;8.15;;
52322;SDS011;38263;52.920;6.238;2022-11-20T14:42:59;13.40;;;8.30;;
52322;SDS011;38263;52.920;6.238;2022-11-20T14:45:26;11.55;;;7.72;;
52322;SDS011;38263;52.920;6.238;2022-11-20T14:47:53;11.80;;;8.15;;
52322;SDS011;38263;52.920;6.238;2022-11-20T14:50:25;15.65;;;8.55;;
52322;SDS011;38263;52.920;6.238;2022-11-20T14:52:53;13.75;;;8.93;;
52322;SDS011;38263;52.920;6.238;2022-11-20T14:55:33;12.77;;;7.72;;
52322;SDS011;38263;52.920;6.238;2022-11-20T14:58:01;13.82;;;9.02;;
52322;SDS011;38263;52.920;6.238;2022-11-20T15:00:53;13.25;;;8.23;;
52322;SDS011;38263;52.920;6.238;2022-11-20T15:03:20;13.48;;;8.57;;
52322;SDS011;38263;52.920;6.238;2022-11-20T15:05:47;13.48;;;8.57;;
52322;SDS011;38263;52.920;6.238;2022-11-20T15:08:14;16.00;;;10.80;;
52322;SDS011;38263;52.920;6.238;2022-11-20T15:10:48;13.60;;;8.80;;
52322;SDS011;38263;52.920;6.238;2022-11-20T15:13:34;14.32;;;8.80;;
52322;SDS011;38263;52.920;6.238;2022-11-20T15:16:02;12.85;;;8.52;;
52322;SDS011;38263;52.920;6.238;2022-11-20T15:20:55;11.65;;;7.88;;
52322;SDS011;38263;52.920;6.238;2022-11-20T15:23:21;13.52;;;8.15;;
52322;SDS011;38263;52.920;6.238;2022-11-20T15:25:48;14.10;;;9.55;;
52322;SDS011;38263;52.920;6.238;2022-11-20T15:28:48;16.20;;;10.25;;
52322;SDS011;38263;52.920;6.238;2022-11-20T15:31:09;17.75;;;9.30;;
52322;SDS011;38263;52.920;6.238;2022-11-20T15:33:36;15.85;;;9.35;;
52322;SDS011;38263;52.920;6.238;2022-11-20T15:36:02;18.65;;;9.90;;
52322;SDS011;38263;52.920;6.238;2022-11-20T15:38:29;14.90;;;9.30;;
52322;SDS011;38263;52.920;6.238;2022-11-20T15:40:54;14.80;;;9.25;;
52322;SDS011;38263;52.920;6.238;2022-11-20T15:43:20;15.13;;;9.35;;
52322;SDS011;38263;52.920;6.238;2022-11-20T15:45:46;15.65;;;9.25;;
52322;SDS011;38263;52.920;6.238;2022-11-20T15:48:16;18.23;;;9.25;;
52322;SDS011;38263;52.920;6.238;2022-11-20T15:50:56;13.27;;;8.05;;
52322;SDS011;38263;52.920;6.238;2022-11-20T15:53:24;16.65;;;9.30;;
52322;SDS011;38263;52.920;6.238;2022-11-20T15:55:50;16.30;;;10.60;;
52322;SDS011;38263;52.920;6.238;2022-11-20T15:58:16;14.40;;;8.60;;
52322;SDS011;38263;52.920;6.238;2022-11-20T16:00:42;14.88;;;9.25;;
52322;SDS011;38263;52.920;6.238;2022-11-20T16:03:12;18.48;;;10.07;;
52322;SDS011;38263;52.920;6.238;2022-11-20T16:05:39;14.75;;;9.05;;
52322;SDS011;38263;52.920;6.238;2022-11-20T16:08:05;12.95;;;9.02;;